Meadows, CA

1:47 PM PDT on August 02, 2015 (GMT -0700)
Meadows | | Change Station
CLOSE
Current Station
Airport
Location: Bakersfield,
Elevation: 492 ft
Nearby Weather Stations

Elev 492 ft 35.43 °N, 119.05 °W | Updated 53 minutes ago

Clear
Clear
94 °F
Feels Like 94 °F
N
10
Wind Variable Wind from WNW

Today
High -- | Low -- °F
--% Chance of Precip.
Yesterday
High -- | Low -- °F
Precip. -- in
6:05 AM 7:59 PM
Waning Gibbous, 92% visible
Pressure 29.85 in
Visibility 10.0 miles
Clouds Clear
Dew Point 49 °F
Humidity 21%
Rainfall 0.00 in
Snow Depth Not available.
UV 12 out of 12
Pollen 5.60 out of 12
Air Quality Not available.
Flu Activity Not available.
METAR KBFL 021954Z 30009KT 10SM CLR 34/09 A2987 RMK AO2 SLP107 T03440094

More Conditions Fewer Conditions

Pressure 29.85 in
Visibility 10.0 miles
Clouds Clear
Dew Point 49 °F
Humidity 21%
Rainfall 0.00 in
Snow Depth Not available.
UV 12 out of 12
Pollen 5.60 out of 12
Air Quality Not available.
Flu Activity Not available.
METAR KBFL 021954Z 30009KT 10SM CLR 34/09 A2987 RMK AO2 SLP107 T03440094

More Conditions Fewer Conditions

10-Day Weather Forecast

×

Almanac

Astronomy

Aug. 02, 2015 Rise Set
Actual Time
Civil Twilight
Nautical Twilight
Astronomical Twilight
Moon
Length of Visible Light
Length of Day
Tomorrow will be .
, % of the Moon is Illuminated

Today's Extremes

State Highs State Lows

Community

WunderPhotos

Upload Photos

1,843,371 photos uploaded!

WunderBlogs® & News

Nearby

Air Quality

  Air Quality AQ Index Pollutant
Not available.

Snow Depth

Station Depth Elevation

Earthquake Activity

City Distance Mag. Time & Date
Minimum magnitude displayed is 2.5.

Coastal Water Temperatures

Place Temperature

Stations

Nearby Weather Stations

Station Location Temp. Windchill Dew Point Humidity Wind Precip. Elev Updated Type